sensor_id;sensor_type;location;lat;lon;timestamp;P1;durP1;ratioP1;P2;durP2;ratioP2
27632;SDS011;15046;50.930;13.334;2023-06-26T00:01:30;7.35;;;5.13;;
27632;SDS011;15046;50.930;13.334;2023-06-26T00:04:00;9.13;;;6.03;;
27632;SDS011;15046;50.930;13.334;2023-06-26T00:06:26;7.97;;;5.57;;
27632;SDS011;15046;50.930;13.334;2023-06-26T00:08:52;7.88;;;5.47;;
27632;SDS011;15046;50.930;13.334;2023-06-26T00:11:20;8.68;;;5.88;;
27632;SDS011;15046;50.930;13.334;2023-06-26T00:13:47;8.35;;;5.78;;
27632;SDS011;15046;50.930;13.334;2023-06-26T00:16:13;7.80;;;5.97;;
27632;SDS011;15046;50.930;13.334;2023-06-26T00:18:39;9.90;;;6.10;;
27632;SDS011;15046;50.930;13.334;2023-06-26T00:21:04;9.50;;;5.97;;
27632;SDS011;15046;50.930;13.334;2023-06-26T00:23:30;9.13;;;6.10;;
27632;SDS011;15046;50.930;13.334;2023-06-26T00:25:59;13.80;;;5.95;;
27632;SDS011;15046;50.930;13.334;2023-06-26T00:28:26;10.35;;;6.00;;
27632;SDS011;15046;50.930;13.334;2023-06-26T00:30:52;10.75;;;5.57;;
27632;SDS011;15046;50.930;13.334;2023-06-26T00:33:17;9.90;;;5.82;;
27632;SDS011;15046;50.930;13.334;2023-06-26T00:35:43;9.20;;;6.07;;
27632;SDS011;15046;50.930;13.334;2023-06-26T00:38:09;11.23;;;6.32;;
27632;SDS011;15046;50.930;13.334;2023-06-26T00:40:35;9.25;;;5.95;;
27632;SDS011;15046;50.930;13.334;2023-06-26T00:43:02;9.95;;;5.95;;
27632;SDS011;15046;50.930;13.334;2023-06-26T00:45:28;10.15;;;6.20;;
27632;SDS011;15046;50.930;13.334;2023-06-26T00:47:54;8.68;;;5.70;;
27632;SDS011;15046;50.930;13.334;2023-06-26T00:50:21;11.40;;;6.57;;
27632;SDS011;15046;50.930;13.334;2023-06-26T00:52:47;8.60;;;6.22;;
27632;SDS011;15046;50.930;13.334;2023-06-26T00:55:13;9.80;;;6.15;;
27632;SDS011;15046;50.930;13.334;2023-06-26T00:57:39;9.20;;;6.18;;
27632;SDS011;15046;50.930;13.334;2023-06-26T01:00:06;8.75;;;6.20;;
27632;SDS011;15046;50.930;13.334;2023-06-26T01:02:32;9.35;;;5.68;;
27632;SDS011;15046;50.930;13.334;2023-06-26T01:04:59;9.25;;;6.03;;
27632;SDS011;15046;50.930;13.334;2023-06-26T01:07:28;10.23;;;6.45;;
27632;SDS011;15046;50.930;13.334;2023-06-26T01:09:57;7.88;;;5.57;;
27632;SDS011;15046;50.930;13.334;2023-06-26T01:12:23;9.73;;;6.53;;
27632;SDS011;15046;50.930;13.334;2023-06-26T01:14:49;10.68;;;6.45;;
27632;SDS011;15046;50.930;13.334;2023-06-26T01:17:15;9.50;;;5.75;;
27632;SDS011;15046;50.930;13.334;2023-06-26T01:19:41;8.82;;;5.90;;
27632;SDS011;15046;50.930;13.334;2023-06-26T01:22:42;15.18;;;6.32;;
27632;SDS011;15046;50.930;13.334;2023-06-26T01:28:06;9.57;;;5.97;;
27632;SDS011;15046;50.930;13.334;2023-06-26T01:30:34;10.10;;;5.82;;
27632;SDS011;15046;50.930;13.334;2023-06-26T01:33:02;10.32;;;6.50;;
27632;SDS011;15046;50.930;13.334;2023-06-26T01:35:29;8.52;;;5.57;;
27632;SDS011;15046;50.930;13.334;2023-06-26T01:38:11;13.10;;;6.32;;
27632;SDS011;15046;50.930;13.334;2023-06-26T01:40:41;10.02;;;6.00;;
27632;SDS011;15046;50.930;13.334;2023-06-26T01:43:10;9.15;;;5.78;;
27632;SDS011;15046;50.930;13.334;2023-06-26T01:45:57;10.25;;;6.70;;
27632;SDS011;15046;50.930;13.334;2023-06-26T01:48:30;10.50;;;6.20;;
27632;SDS011;15046;50.930;13.334;2023-06-26T01:51:03;9.30;;;5.90;;
27632;SDS011;15046;50.930;13.334;2023-06-26T01:53:32;8.95;;;6.32;;
27632;SDS011;15046;50.930;13.334;2023-06-26T01:56:08;9.80;;;6.43;;
27632;SDS011;15046;50.930;13.334;2023-06-26T01:58:39;8.93;;;6.25;;
27632;SDS011;15046;50.930;13.334;2023-06-26T02:01:09;10.18;;;5.90;;
27632;SDS011;15046;50.930;13.334;2023-06-26T02:03:35;8.40;;;6.05;;
27632;SDS011;15046;50.930;13.334;2023-06-26T02:06:00;11.55;;;6.43;;
27632;SDS011;15046;50.930;13.334;2023-06-26T02:08:26;8.32;;;5.22;;
27632;SDS011;15046;50.930;13.334;2023-06-26T02:10:52;11.10;;;6.28;;
27632;SDS011;15046;50.930;13.334;2023-06-26T02:13:18;8.98;;;5.88;;
27632;SDS011;15046;50.930;13.334;2023-06-26T02:15:43;10.07;;;5.53;;
27632;SDS011;15046;50.930;13.334;2023-06-26T02:18:09;13.05;;;5.60;;
27632;SDS011;15046;50.930;13.334;2023-06-26T02:20:35;10.40;;;6.20;;
27632;SDS011;15046;50.930;13.334;2023-06-26T02:23:01;10.18;;;6.43;;
27632;SDS011;15046;50.930;13.334;2023-06-26T02:25:27;11.00;;;6.50;;
27632;SDS011;15046;50.930;13.334;2023-06-26T02:27:52;8.60;;;5.47;;
27632;SDS011;15046;50.930;13.334;2023-06-26T02:30:18;9.20;;;5.85;;
27632;SDS011;15046;50.930;13.334;2023-06-26T02:32:44;9.98;;;5.47;;
27632;SDS011;15046;50.930;13.334;2023-06-26T02:35:10;10.60;;;5.70;;
27632;SDS011;15046;50.930;13.334;2023-06-26T02:37:36;9.90;;;6.22;;
27632;SDS011;15046;50.930;13.334;2023-06-26T02:40:02;9.48;;;5.88;;
27632;SDS011;15046;50.930;13.334;2023-06-26T02:42:29;13.02;;;6.28;;
27632;SDS011;15046;50.930;13.334;2023-06-26T02:44:56;9.15;;;5.78;;
27632;SDS011;15046;50.930;13.334;2023-06-26T02:47:22;8.50;;;5.40;;
27632;SDS011;15046;50.930;13.334;2023-06-26T02:49:47;9.20;;;6.10;;
27632;SDS011;15046;50.930;13.334;2023-06-26T02:52:13;9.23;;;5.85;;
27632;SDS011;15046;50.930;13.334;2023-06-26T02:54:39;9.95;;;6.05;;
27632;SDS011;15046;50.930;13.334;2023-06-26T02:57:05;9.45;;;6.25;;
27632;SDS011;15046;50.930;13.334;2023-06-26T02:59:30;11.43;;;6.60;;
27632;SDS011;15046;50.930;13.334;2023-06-26T03:01:57;10.07;;;6.05;;
27632;SDS011;15046;50.930;13.334;2023-06-26T03:04:23;11.10;;;6.07;;
27632;SDS011;15046;50.930;13.334;2023-06-26T03:06:48;8.30;;;6.13;;
27632;SDS011;15046;50.930;13.334;2023-06-26T03:09:15;10.93;;;6.40;;
27632;SDS011;15046;50.930;13.334;2023-06-26T03:11:41;10.75;;;6.75;;
27632;SDS011;15046;50.930;13.334;2023-06-26T03:14:07;7.63;;;5.50;;
27632;SDS011;15046;50.930;13.334;2023-06-26T03:16:33;11.20;;;5.68;;
27632;SDS011;15046;50.930;13.334;2023-06-26T03:18:59;8.18;;;5.85;;
27632;SDS011;15046;50.930;13.334;2023-06-26T03:21:24;11.00;;;6.35;;
27632;SDS011;15046;50.930;13.334;2023-06-26T03:23:50;9.57;;;5.70;;
27632;SDS011;15046;50.930;13.334;2023-06-26T03:26:17;8.63;;;5.88;;
27632;SDS011;15046;50.930;13.334;2023-06-26T03:28:42;7.55;;;5.90;;
27632;SDS011;15046;50.930;13.334;2023-06-26T03:31:08;8.75;;;6.05;;
27632;SDS011;15046;50.930;13.334;2023-06-26T03:33:34;9.63;;;6.00;;
27632;SDS011;15046;50.930;13.334;2023-06-26T03:36:00;10.63;;;6.78;;
27632;SDS011;15046;50.930;13.334;2023-06-26T03:38:25;9.23;;;5.65;;
27632;SDS011;15046;50.930;13.334;2023-06-26T03:40:51;11.30;;;6.85;;
27632;SDS011;15046;50.930;13.334;2023-06-26T03:43:17;8.93;;;6.22;;
27632;SDS011;15046;50.930;13.334;2023-06-26T03:45:43;12.38;;;5.82;;
27632;SDS011;15046;50.930;13.334;2023-06-26T03:48:09;10.07;;;5.57;;
27632;SDS011;15046;50.930;13.334;2023-06-26T03:50:35;11.80;;;6.82;;
27632;SDS011;15046;50.930;13.334;2023-06-26T03:53:01;11.32;;;6.07;;
27632;SDS011;15046;50.930;13.334;2023-06-26T03:55:26;13.65;;;7.22;;
27632;SDS011;15046;50.930;13.334;2023-06-26T03:57:52;16.23;;;6.60;;
27632;SDS011;15046;50.930;13.334;2023-06-26T04:00:18;11.27;;;5.95;;
27632;SDS011;15046;50.930;13.334;2023-06-26T04:02:44;10.68;;;6.28;;
27632;SDS011;15046;50.930;13.334;2023-06-26T04:05:10;10.98;;;6.60;;
27632;SDS011;15046;50.930;13.334;2023-06-26T04:07:36;10.68;;;6.82;;
27632;SDS011;15046;50.930;13.334;2023-06-26T04:10:02;11.18;;;6.38;;
27632;SDS011;15046;50.930;13.334;2023-06-26T04:12:29;12.85;;;6.38;;
27632;SDS011;15046;50.930;13.334;2023-06-26T04:14:54;9.27;;;6.20;;
27632;SDS011;15046;50.930;13.334;2023-06-26T04:17:20;10.60;;;5.85;;
27632;SDS011;15046;50.930;13.334;2023-06-26T04:19:47;11.52;;;6.35;;
27632;SDS011;15046;50.930;13.334;2023-06-26T04:22:12;10.80;;;5.90;;
27632;SDS011;15046;50.930;13.334;2023-06-26T04:24:38;11.68;;;6.15;;
27632;SDS011;15046;50.930;13.334;2023-06-26T04:27:04;14.25;;;6.35;;
27632;SDS011;15046;50.930;13.334;2023-06-26T04:29:30;9.48;;;6.40;;
27632;SDS011;15046;50.930;13.334;2023-06-26T04:31:56;14.20;;;6.22;;
27632;SDS011;15046;50.930;13.334;2023-06-26T04:34:26;10.60;;;5.72;;
27632;SDS011;15046;50.930;13.334;2023-06-26T04:39:19;10.15;;;5.40;;
27632;SDS011;15046;50.930;13.334;2023-06-26T04:41:45;10.30;;;5.47;;
27632;SDS011;15046;50.930;13.334;2023-06-26T04:44:11;9.25;;;5.32;;
27632;SDS011;15046;50.930;13.334;2023-06-26T04:46:37;11.20;;;6.35;;
27632;SDS011;15046;50.930;13.334;2023-06-26T04:51:33;9.73;;;5.47;;
27632;SDS011;15046;50.930;13.334;2023-06-26T04:54:03;9.73;;;5.82;;
27632;SDS011;15046;50.930;13.334;2023-06-26T04:56:29;11.38;;;5.63;;
27632;SDS011;15046;50.930;13.334;2023-06-26T04:58:56;9.10;;;5.85;;
27632;SDS011;15046;50.930;13.334;2023-06-26T05:01:23;13.77;;;5.53;;
27632;SDS011;15046;50.930;13.334;2023-06-26T05:03:48;13.15;;;6.30;;
27632;SDS011;15046;50.930;13.334;2023-06-26T05:06:14;9.43;;;5.63;;
27632;SDS011;15046;50.930;13.334;2023-06-26T05:08:41;9.55;;;5.55;;
27632;SDS011;15046;50.930;13.334;2023-06-26T05:11:06;8.98;;;5.63;;
27632;SDS011;15046;50.930;13.334;2023-06-26T05:13:32;8.38;;;4.75;;
27632;SDS011;15046;50.930;13.334;2023-06-26T05:15:58;12.65;;;6.07;;
27632;SDS011;15046;50.930;13.334;2023-06-26T05:18:24;10.60;;;4.95;;
27632;SDS011;15046;50.930;13.334;2023-06-26T05:20:50;8.45;;;5.30;;
27632;SDS011;15046;50.930;13.334;2023-06-26T05:23:16;8.02;;;5.07;;
27632;SDS011;15046;50.930;13.334;2023-06-26T05:25:42;8.82;;;5.70;;
27632;SDS011;15046;50.930;13.334;2023-06-26T05:28:08;8.75;;;5.28;;
27632;SDS011;15046;50.930;13.334;2023-06-26T05:30:38;10.35;;;5.28;;
27632;SDS011;15046;50.930;13.334;2023-06-26T05:33:04;8.82;;;4.88;;
27632;SDS011;15046;50.930;13.334;2023-06-26T05:35:32;8.82;;;5.18;;
27632;SDS011;15046;50.930;13.334;2023-06-26T05:38:01;8.23;;;4.65;;
27632;SDS011;15046;50.930;13.334;2023-06-26T05:40:27;6.80;;;4.60;;
27632;SDS011;15046;50.930;13.334;2023-06-26T05:42:53;11.02;;;4.93;;
27632;SDS011;15046;50.930;13.334;2023-06-26T05:45:19;10.00;;;4.40;;
27632;SDS011;15046;50.930;13.334;2023-06-26T05:47:45;6.78;;;4.57;;
27632;SDS011;15046;50.930;13.334;2023-06-26T05:50:11;9.93;;;5.13;;
27632;SDS011;15046;50.930;13.334;2023-06-26T05:52:38;9.00;;;5.55;;
27632;SDS011;15046;50.930;13.334;2023-06-26T05:55:05;7.22;;;4.53;;
27632;SDS011;15046;50.930;13.334;2023-06-26T05:57:32;8.15;;;5.43;;
27632;SDS011;15046;50.930;13.334;2023-06-26T05:59:59;8.48;;;4.97;;
27632;SDS011;15046;50.930;13.334;2023-06-26T06:02:26;7.30;;;4.47;;
27632;SDS011;15046;50.930;13.334;2023-06-26T06:04:52;7.85;;;4.85;;
27632;SDS011;15046;50.930;13.334;2023-06-26T06:07:17;7.50;;;4.60;;
27632;SDS011;15046;50.930;13.334;2023-06-26T06:09:43;6.95;;;4.78;;
27632;SDS011;15046;50.930;13.334;2023-06-26T06:12:09;8.73;;;5.00;;
27632;SDS011;15046;50.930;13.334;2023-06-26T06:14:35;7.72;;;4.90;;
27632;SDS011;15046;50.930;13.334;2023-06-26T06:17:01;8.73;;;5.45;;
27632;SDS011;15046;50.930;13.334;2023-06-26T06:19:27;7.30;;;5.30;;
27632;SDS011;15046;50.930;13.334;2023-06-26T06:21:53;7.75;;;4.78;;
27632;SDS011;15046;50.930;13.334;2023-06-26T06:24:19;6.55;;;4.70;;
27632;SDS011;15046;50.930;13.334;2023-06-26T06:26:45;8.13;;;4.88;;
27632;SDS011;15046;50.930;13.334;2023-06-26T06:29:11;7.68;;;4.30;;
27632;SDS011;15046;50.930;13.334;2023-06-26T06:31:37;8.75;;;4.82;;
27632;SDS011;15046;50.930;13.334;2023-06-26T06:34:03;6.65;;;4.50;;
27632;SDS011;15046;50.930;13.334;2023-06-26T06:36:28;8.75;;;5.32;;
27632;SDS011;15046;50.930;13.334;2023-06-26T06:38:54;8.15;;;5.07;;
27632;SDS011;15046;50.930;13.334;2023-06-26T06:41:20;9.85;;;5.20;;
27632;SDS011;15046;50.930;13.334;2023-06-26T06:43:46;6.72;;;4.57;;
27632;SDS011;15046;50.930;13.334;2023-06-26T06:46:12;8.27;;;5.05;;
27632;SDS011;15046;50.930;13.334;2023-06-26T06:48:38;9.15;;;5.20;;
27632;SDS011;15046;50.930;13.334;2023-06-26T06:51:04;7.47;;;4.68;;
27632;SDS011;15046;50.930;13.334;2023-06-26T06:53:31;7.15;;;5.10;;
27632;SDS011;15046;50.930;13.334;2023-06-26T06:55:57;6.97;;;4.85;;
27632;SDS011;15046;50.930;13.334;2023-06-26T06:58:23;7.38;;;5.07;;
27632;SDS011;15046;50.930;13.334;2023-06-26T07:00:48;8.18;;;4.90;;
27632;SDS011;15046;50.930;13.334;2023-06-26T07:03:16;12.43;;;5.63;;
27632;SDS011;15046;50.930;13.334;2023-06-26T07:05:41;6.03;;;4.40;;
27632;SDS011;15046;50.930;13.334;2023-06-26T07:08:07;7.20;;;4.97;;
27632;SDS011;15046;50.930;13.334;2023-06-26T07:10:33;8.30;;;5.18;;
27632;SDS011;15046;50.930;13.334;2023-06-26T07:12:59;7.72;;;5.22;;
27632;SDS011;15046;50.930;13.334;2023-06-26T07:15:27;7.03;;;4.35;;
27632;SDS011;15046;50.930;13.334;2023-06-26T07:17:52;9.63;;;5.05;;
27632;SDS011;15046;50.930;13.334;2023-06-26T07:20:18;7.85;;;5.10;;
27632;SDS011;15046;50.930;13.334;2023-06-26T07:22:44;8.40;;;4.47;;
27632;SDS011;15046;50.930;13.334;2023-06-26T07:25:11;8.25;;;5.40;;
27632;SDS011;15046;50.930;13.334;2023-06-26T07:27:37;9.88;;;5.30;;
27632;SDS011;15046;50.930;13.334;2023-06-26T07:30:03;8.77;;;5.22;;
27632;SDS011;15046;50.930;13.334;2023-06-26T07:32:30;8.82;;;4.95;;
27632;SDS011;15046;50.930;13.334;2023-06-26T07:34:56;7.28;;;5.35;;
27632;SDS011;15046;50.930;13.334;2023-06-26T07:37:21;8.85;;;5.25;;
27632;SDS011;15046;50.930;13.334;2023-06-26T07:39:48;6.22;;;4.55;;
27632;SDS011;15046;50.930;13.334;2023-06-26T07:42:14;7.03;;;4.95;;
27632;SDS011;15046;50.930;13.334;2023-06-26T07:44:41;7.10;;;5.15;;
27632;SDS011;15046;50.930;13.334;2023-06-26T07:47:08;7.97;;;5.32;;
27632;SDS011;15046;50.930;13.334;2023-06-26T07:49:34;8.43;;;5.07;;
27632;SDS011;15046;50.930;13.334;2023-06-26T07:52:00;7.97;;;5.50;;
27632;SDS011;15046;50.930;13.334;2023-06-26T07:54:26;6.85;;;4.90;;
27632;SDS011;15046;50.930;13.334;2023-06-26T07:56:59;8.18;;;4.70;;
27632;SDS011;15046;50.930;13.334;2023-06-26T07:59:27;7.40;;;4.85;;
27632;SDS011;15046;50.930;13.334;2023-06-26T08:01:54;7.30;;;4.70;;
27632;SDS011;15046;50.930;13.334;2023-06-26T08:04:22;7.38;;;5.00;;
27632;SDS011;15046;50.930;13.334;2023-06-26T08:06:50;7.13;;;5.22;;
27632;SDS011;15046;50.930;13.334;2023-06-26T08:09:22;8.93;;;5.07;;
27632;SDS011;15046;50.930;13.334;2023-06-26T08:11:49;7.03;;;5.03;;
27632;SDS011;15046;50.930;13.334;2023-06-26T08:14:16;8.63;;;5.20;;
27632;SDS011;15046;50.930;13.334;2023-06-26T08:16:42;9.25;;;5.38;;
27632;SDS011;15046;50.930;13.334;2023-06-26T08:19:12;7.82;;;5.22;;
27632;SDS011;15046;50.930;13.334;2023-06-26T08:21:39;9.15;;;5.35;;
27632;SDS011;15046;50.930;13.334;2023-06-26T08:24:14;8.10;;;5.50;;
27632;SDS011;15046;50.930;13.334;2023-06-26T08:29:10;7.35;;;4.82;;
27632;SDS011;15046;50.930;13.334;2023-06-26T08:31:36;8.80;;;5.50;;
27632;SDS011;15046;50.930;13.334;2023-06-26T08:34:03;9.32;;;5.10;;
27632;SDS011;15046;50.930;13.334;2023-06-26T08:36:30;8.15;;;4.85;;
27632;SDS011;15046;50.930;13.334;2023-06-26T08:38:56;7.95;;;5.00;;
27632;SDS011;15046;50.930;13.334;2023-06-26T08:41:22;6.97;;;5.20;;
27632;SDS011;15046;50.930;13.334;2023-06-26T08:43:48;8.25;;;5.50;;
27632;SDS011;15046;50.930;13.334;2023-06-26T08:46:16;8.75;;;5.25;;
27632;SDS011;15046;50.930;13.334;2023-06-26T08:48:43;7.65;;;5.35;;
27632;SDS011;15046;50.930;13.334;2023-06-26T08:51:15;8.13;;;5.78;;
27632;SDS011;15046;50.930;13.334;2023-06-26T08:53:45;8.35;;;5.78;;
27632;SDS011;15046;50.930;13.334;2023-06-26T08:56:16;9.52;;;5.30;;
27632;SDS011;15046;50.930;13.334;2023-06-26T08:58:46;8.23;;;4.80;;
27632;SDS011;15046;50.930;13.334;2023-06-26T09:01:12;10.68;;;5.47;;
27632;SDS011;15046;50.930;13.334;2023-06-26T09:03:38;9.38;;;5.50;;
27632;SDS011;15046;50.930;13.334;2023-06-26T09:06:15;8.50;;;5.55;;
27632;SDS011;15046;50.930;13.334;2023-06-26T09:08:41;7.90;;;5.70;;
27632;SDS011;15046;50.930;13.334;2023-06-26T09:11:08;6.75;;;5.05;;
27632;SDS011;15046;50.930;13.334;2023-06-26T09:13:34;9.75;;;5.35;;
27632;SDS011;15046;50.930;13.334;2023-06-26T09:16:04;7.75;;;5.50;;
27632;SDS011;15046;50.930;13.334;2023-06-26T09:18:32;9.10;;;5.35;;
27632;SDS011;15046;50.930;13.334;2023-06-26T09:20:59;7.57;;;5.32;;
27632;SDS011;15046;50.930;13.334;2023-06-26T09:23:26;7.85;;;5.25;;
27632;SDS011;15046;50.930;13.334;2023-06-26T09:25:52;9.13;;;5.82;;
27632;SDS011;15046;50.930;13.334;2023-06-26T09:28:18;8.60;;;5.28;;
27632;SDS011;15046;50.930;13.334;2023-06-26T09:30:44;7.75;;;4.82;;
27632;SDS011;15046;50.930;13.334;2023-06-26T09:33:14;8.13;;;4.78;;
27632;SDS011;15046;50.930;13.334;2023-06-26T09:35:41;12.57;;;6.22;;
27632;SDS011;15046;50.930;13.334;2023-06-26T09:38:08;11.20;;;7.50;;
27632;SDS011;15046;50.930;13.334;2023-06-26T09:40:33;9.95;;;6.10;;
27632;SDS011;15046;50.930;13.334;2023-06-26T09:43:04;7.90;;;5.30;;
27632;SDS011;15046;50.930;13.334;2023-06-26T09:45:31;7.70;;;5.20;;
27632;SDS011;15046;50.930;13.334;2023-06-26T09:48:03;7.35;;;5.03;;
27632;SDS011;15046;50.930;13.334;2023-06-26T09:50:33;8.35;;;5.03;;
27632;SDS011;15046;50.930;13.334;2023-06-26T09:53:17;8.15;;;4.95;;
27632;SDS011;15046;50.930;13.334;2023-06-26T09:55:43;7.28;;;5.15;;
27632;SDS011;15046;50.930;13.334;2023-06-26T09:58:12;7.38;;;5.13;;
27632;SDS011;15046;50.930;13.334;2023-06-26T10:00:42;7.22;;;4.78;;
27632;SDS011;15046;50.930;13.334;2023-06-26T10:03:08;8.65;;;4.82;;
27632;SDS011;15046;50.930;13.334;2023-06-26T10:05:38;8.07;;;5.20;;
27632;SDS011;15046;50.930;13.334;2023-06-26T10:08:05;6.22;;;4.90;;
27632;SDS011;15046;50.930;13.334;2023-06-26T10:10:33;6.72;;;4.85;;
27632;SDS011;15046;50.930;13.334;2023-06-26T10:13:04;7.70;;;5.68;;
27632;SDS011;15046;50.930;13.334;2023-06-26T10:15:44;7.53;;;4.95;;
27632;SDS011;15046;50.930;13.334;2023-06-26T10:18:11;12.77;;;5.85;;
27632;SDS011;15046;50.930;13.334;2023-06-26T10:20:39;7.47;;;4.75;;
27632;SDS011;15046;50.930;13.334;2023-06-26T10:23:07;8.18;;;4.50;;
27632;SDS011;15046;50.930;13.334;2023-06-26T10:25:34;7.65;;;4.97;;
27632;SDS011;15046;50.930;13.334;2023-06-26T10:28:05;8.32;;;5.32;;
27632;SDS011;15046;50.930;13.334;2023-06-26T10:30:34;8.68;;;5.15;;
27632;SDS011;15046;50.930;13.334;2023-06-26T10:33:02;8.80;;;5.85;;
27632;SDS011;15046;50.930;13.334;2023-06-26T10:35:29;12.27;;;5.80;;
27632;SDS011;15046;50.930;13.334;2023-06-26T10:38:01;7.68;;;5.13;;
27632;SDS011;15046;50.930;13.334;2023-06-26T10:40:33;11.10;;;5.43;;
27632;SDS011;15046;50.930;13.334;2023-06-26T10:43:10;9.77;;;5.53;;
27632;SDS011;15046;50.930;13.334;2023-06-26T10:45:47;6.03;;;4.43;;
27632;SDS011;15046;50.930;13.334;2023-06-26T10:48:20;7.13;;;5.10;;
27632;SDS011;15046;50.930;13.334;2023-06-26T10:50:48;8.23;;;5.72;;
27632;SDS011;15046;50.930;13.334;2023-06-26T10:53:15;7.07;;;4.82;;
27632;SDS011;15046;50.930;13.334;2023-06-26T10:56:04;6.32;;;4.85;;
27632;SDS011;15046;50.930;13.334;2023-06-26T11:06:23;6.97;;;5.22;;
27632;SDS011;15046;50.930;13.334;2023-06-26T11:08:52;7.32;;;5.18;;
27632;SDS011;15046;50.930;13.334;2023-06-26T11:12:09;8.10;;;5.22;;
27632;SDS011;15046;50.930;13.334;2023-06-26T11:14:20;7.72;;;5.07;;
27632;SDS011;15046;50.930;13.334;2023-06-26T11:16:50;6.90;;;5.07;;
27632;SDS011;15046;50.930;13.334;2023-06-26T11:19:16;6.20;;;5.18;;
27632;SDS011;15046;50.930;13.334;2023-06-26T11:21:43;6.50;;;5.07;;
27632;SDS011;15046;50.930;13.334;2023-06-26T11:24:09;6.65;;;4.70;;
27632;SDS011;15046;50.930;13.334;2023-06-26T11:26:40;7.93;;;4.53;;
27632;SDS011;15046;50.930;13.334;2023-06-26T11:29:10;6.40;;;4.93;;
27632;SDS011;15046;50.930;13.334;2023-06-26T11:31:37;8.30;;;4.80;;
27632;SDS011;15046;50.930;13.334;2023-06-26T11:34:05;11.73;;;5.03;;
27632;SDS011;15046;50.930;13.334;2023-06-26T11:36:36;6.18;;;4.60;;
27632;SDS011;15046;50.930;13.334;2023-06-26T11:39:06;6.50;;;4.78;;
27632;SDS011;15046;50.930;13.334;2023-06-26T11:41:33;6.65;;;4.60;;
27632;SDS011;15046;50.930;13.334;2023-06-26T11:44:01;5.75;;;4.57;;
27632;SDS011;15046;50.930;13.334;2023-06-26T11:46:28;6.88;;;4.95;;
27632;SDS011;15046;50.930;13.334;2023-06-26T11:48:55;6.32;;;4.57;;
27632;SDS011;15046;50.930;13.334;2023-06-26T11:51:21;6.30;;;4.30;;
27632;SDS011;15046;50.930;13.334;2023-06-26T11:53:47;6.65;;;4.78;;
27632;SDS011;15046;50.930;13.334;2023-06-26T11:56:17;7.93;;;5.13;;
27632;SDS011;15046;50.930;13.334;2023-06-26T12:01:33;6.30;;;4.88;;
27632;SDS011;15046;50.930;13.334;2023-06-26T12:04:04;5.50;;;4.65;;
27632;SDS011;15046;50.930;13.334;2023-06-26T12:06:35;6.20;;;4.75;;
27632;SDS011;15046;50.930;13.334;2023-06-26T12:09:05;6.95;;;4.30;;
27632;SDS011;15046;50.930;13.334;2023-06-26T12:11:34;9.13;;;4.90;;
27632;SDS011;15046;50.930;13.334;2023-06-26T12:14:00;6.60;;;4.25;;
27632;SDS011;15046;50.930;13.334;2023-06-26T12:16:29;6.05;;;4.53;;
27632;SDS011;15046;50.930;13.334;2023-06-26T12:19:02;7.43;;;5.03;;
27632;SDS011;15046;50.930;13.334;2023-06-26T12:24:07;8.25;;;5.65;;
27632;SDS011;15046;50.930;13.334;2023-06-26T12:26:36;5.93;;;5.15;;
27632;SDS011;15046;50.930;13.334;2023-06-26T12:29:09;8.38;;;4.88;;
27632;SDS011;15046;50.930;13.334;2023-06-26T12:31:39;6.32;;;5.05;;
27632;SDS011;15046;50.930;13.334;2023-06-26T12:34:17;5.97;;;4.45;;
27632;SDS011;15046;50.930;13.334;2023-06-26T12:36:50;6.35;;;4.88;;
27632;SDS011;15046;50.930;13.334;2023-06-26T12:39:17;6.82;;;5.00;;
27632;SDS011;15046;50.930;13.334;2023-06-26T12:41:57;8.90;;;5.05;;
27632;SDS011;15046;50.930;13.334;2023-06-26T12:47:02;7.13;;;5.15;;
27632;SDS011;15046;50.930;13.334;2023-06-26T12:51:59;6.95;;;5.38;;
27632;SDS011;15046;50.930;13.334;2023-06-26T12:54:26;7.18;;;5.00;;
27632;SDS011;15046;50.930;13.334;2023-06-26T12:56:52;9.52;;;5.55;;
27632;SDS011;15046;50.930;13.334;2023-06-26T12:59:18;8.50;;;5.38;;
27632;SDS011;15046;50.930;13.334;2023-06-26T13:01:44;7.43;;;5.50;;
27632;SDS011;15046;50.930;13.334;2023-06-26T13:04:10;7.35;;;5.15;;
27632;SDS011;15046;50.930;13.334;2023-06-26T13:06:37;7.75;;;5.60;;
27632;SDS011;15046;50.930;13.334;2023-06-26T13:09:03;7.85;;;5.22;;
27632;SDS011;15046;50.930;13.334;2023-06-26T13:11:29;6.43;;;5.15;;
27632;SDS011;15046;50.930;13.334;2023-06-26T13:13:56;8.50;;;5.57;;
27632;SDS011;15046;50.930;13.334;2023-06-26T13:16:24;9.45;;;5.55;;
27632;SDS011;15046;50.930;13.334;2023-06-26T13:18:50;8.57;;;5.50;;
27632;SDS011;15046;50.930;13.334;2023-06-26T13:21:16;6.50;;;5.38;;
27632;SDS011;15046;50.930;13.334;2023-06-26T13:23:43;9.32;;;5.90;;
27632;SDS011;15046;50.930;13.334;2023-06-26T13:26:09;5.75;;;4.35;;
27632;SDS011;15046;50.930;13.334;2023-06-26T13:28:36;6.85;;;4.97;;
27632;SDS011;15046;50.930;13.334;2023-06-26T13:31:02;10.65;;;5.53;;
27632;SDS011;15046;50.930;13.334;2023-06-26T13:33:30;9.02;;;5.43;;
27632;SDS011;15046;50.930;13.334;2023-06-26T13:35:56;8.35;;;5.30;;
27632;SDS011;15046;50.930;13.334;2023-06-26T13:38:23;6.43;;;5.43;;
27632;SDS011;15046;50.930;13.334;2023-06-26T13:40:54;6.97;;;5.38;;
27632;SDS011;15046;50.930;13.334;2023-06-26T13:43:22;7.78;;;5.32;;
27632;SDS011;15046;50.930;13.334;2023-06-26T13:45:48;10.15;;;5.75;;
27632;SDS011;15046;50.930;13.334;2023-06-26T13:48:14;7.57;;;5.22;;
27632;SDS011;15046;50.930;13.334;2023-06-26T13:50:40;7.15;;;5.57;;
27632;SDS011;15046;50.930;13.334;2023-06-26T13:53:06;6.13;;;5.03;;
27632;SDS011;15046;50.930;13.334;2023-06-26T13:55:34;13.07;;;5.57;;
27632;SDS011;15046;50.930;13.334;2023-06-26T13:58:00;7.65;;;5.70;;
27632;SDS011;15046;50.930;13.334;2023-06-26T14:00:30;7.85;;;5.80;;
27632;SDS011;15046;50.930;13.334;2023-06-26T14:02:58;6.55;;;5.07;;
27632;SDS011;15046;50.930;13.334;2023-06-26T14:05:32;6.57;;;5.30;;
27632;SDS011;15046;50.930;13.334;2023-06-26T14:07:58;6.88;;;5.50;;
27632;SDS011;15046;50.930;13.334;2023-06-26T14:10:24;8.57;;;6.30;;
27632;SDS011;15046;50.930;13.334;2023-06-26T14:12:50;9.57;;;6.05;;
27632;SDS011;15046;50.930;13.334;2023-06-26T14:15:16;8.43;;;6.00;;
27632;SDS011;15046;50.930;13.334;2023-06-26T14:17:42;5.70;;;4.88;;
27632;SDS011;15046;50.930;13.334;2023-06-26T14:20:08;6.90;;;5.65;;
27632;SDS011;15046;50.930;13.334;2023-06-26T14:22:38;7.90;;;5.25;;
27632;SDS011;15046;50.930;13.334;2023-06-26T14:25:05;6.47;;;5.53;;
27632;SDS011;15046;50.930;13.334;2023-06-26T14:27:36;6.68;;;5.53;;
27632;SDS011;15046;50.930;13.334;2023-06-26T14:30:02;7.75;;;5.32;;
27632;SDS011;15046;50.930;13.334;2023-06-26T14:32:30;6.45;;;5.57;;
27632;SDS011;15046;50.930;13.334;2023-06-26T14:34:56;6.22;;;5.22;;
27632;SDS011;15046;50.930;13.334;2023-06-26T14:37:23;7.57;;;6.18;;
27632;SDS011;15046;50.930;13.334;2023-06-26T14:39:50;6.30;;;5.38;;
27632;SDS011;15046;50.930;13.334;2023-06-26T14:42:16;7.35;;;5.70;;
27632;SDS011;15046;50.930;13.334;2023-06-26T14:44:42;6.97;;;5.60;;
27632;SDS011;15046;50.930;13.334;2023-06-26T14:47:11;9.05;;;5.38;;
27632;SDS011;15046;50.930;13.334;2023-06-26T14:49:38;7.22;;;5.50;;
27632;SDS011;15046;50.930;13.334;2023-06-26T14:52:04;7.07;;;5.18;;
27632;SDS011;15046;50.930;13.334;2023-06-26T14:54:31;7.68;;;4.93;;
27632;SDS011;15046;50.930;13.334;2023-06-26T14:57:01;7.75;;;6.07;;
27632;SDS011;15046;50.930;13.334;2023-06-26T14:59:28;6.15;;;5.28;;
27632;SDS011;15046;50.930;13.334;2023-06-26T15:01:54;6.60;;;5.47;;